East Syracuse, New York
Current Conditions -  °F | °C
As of 11:02 PM on Saturday 25 Oct 2014 (Local Time) from KSYR Reporting Station
Thunderstorm Thunderstorm  
Wind Chill: 57°   Ceiling: 8000
Heat Index: 57°   Visibility: 10mi
Dew Point: 48°   Wind: 10mph
Humidity: 72%   Direction: 250°WSW
Pressure: 29.54"   Gusts: NA
Location:  43.07°N, 76.08°W
Report Text: KSYR 260302Z 25009KT 10SM TS FEW050CB SCT065 OVC080 14/09 A2954 RMK AO2 TSB02 FRQ LTGICCG NE AND W-NW TS NE AND W-NW MOV SE T01390089
Loading
Personal Weather Stations






























Interactive Weather Map
Tropical Storm Tracking
New forecast layout! Learn more

10-Day Weather Forecast

Advertisements
Track Severe Weather on mobile